Airfield :
LOGIN :

Register | Disclaimer

   EN    FR    IT 

 










Legend :    VFR   Marginal VFR   IFR   Intensive IFR   Very Intensive IFR
Visi :
Ceiling :
>= 8 km
>= 3000ft
5 to 8 km
1000 to 3000 ft
1500m to 5 km
500 to 1000 ft
800 to 1500m
200 to 500 ft
< 800m
< 200 ft
Symbols :   Thunderstorms  Fog  Heavy snow  Heavy precipitations  Wind > 20 kt
SIGMETs :     Misc.  Thunderstorms  Icing  Turbulence  Mountain Waves  Volcanic Ashes







- Airport Elevation : 26 ft


ETNT - Wittmundhaven AB

CURRENT METAR :
  • 220120Z 20004KT 6000 OVC003 08/07 Q1033 YLO

EXPIRED METARs :
  • 220020Z 20004KT 5000 BR OVC002 08/07 Q1032 AMB
  • 212320Z VRB02KT 8000 BKN004 08/07 Q1033 YLO

TAF TAF ETNT
Valid from the 22 at 00:00 until the 22 at 09:00 UTC


212300Z 2200/2209 27004KT 5000 BR OVC005
BECMG 2200/2202 27004KT 1000 BR OVC002
TEMPO 2202/2208 29003KT 0400 FG VV001 BY ETGL
No reported NOTAMs for that airfield.



MET'MAP, your aeronautical weather chart ! - Copyright ORBIFLY December 2007 - Disclaimer

ORBIFLY MET'MAP TEAM :

Programming & Development : Alexandra Zaïnal
Concept & Development : Baudouin d'Aumeries
Co-Development & Prog : Marc-Olivier Méhu
Technical & hardware support : Manuel Goepfert

Contact : metmap@orbifly.com




SOURCES & CREDITS :

   NOAA